Wetterdaten: Woche 11.12.23 - 17.12.23 (KW50)
Datum Zeit Temp. I. Temp. A. Feuchte I. Feuchte A. Luftdruck Regen Wind Richtung Sonnenschein Solar Taupunkt Windchill Windböen
11.12.2023 00:00 21,8 °C 7,2 °C 51 % 90 % 999,8 hPa 0,0 l/m² 12,5 km/h (2 Bft) S-SO 0,00 h 0 W/m² 5,7 °C 3,4 °C 18,1 km/h (3 Bft)
11.12.2023 01:00 21,7 °C 7,6 °C 51 % 90 % 999,3 hPa 0,0 l/m² 13,3 km/h (3 Bft) S-SW 0,00 h 0 W/m² 6,0 °C 3,3 °C 18,5 km/h (3 Bft)
11.12.2023 02:00 21,7 °C 8,3 °C 51 % 88 % 998,8 hPa 0,0 l/m² 21,8 km/h (4 Bft) SW 0,00 h 0 W/m² 6,4 °C 0,5 °C 29,6 km/h (5 Bft)
11.12.2023 03:00 21,7 °C 8,1 °C 51 % 88 % 999,2 hPa 0,0 l/m² 18,5 km/h (3 Bft) SW 0,00 h 0 W/m² 6,2 °C 1,4 °C 24,7 km/h (4 Bft)
11.12.2023 04:00 21,7 °C 7,7 °C 50 % 88 % 999,5 hPa 0,0 l/m² 10,9 km/h (2 Bft) SW 0,00 h 0 W/m² 5,9 °C 4,7 °C 15,5 km/h (3 Bft)
11.12.2023 05:00 21,7 °C 7,5 °C 51 % 89 % 999,6 hPa 0,0 l/m² 12,4 km/h (2 Bft) SW 0,00 h 0 W/m² 5,7 °C 3,5 °C 18,0 km/h (3 Bft)
11.12.2023 06:00 21,6 °C 6,6 °C 50 % 88 % 999,9 hPa 0,0 l/m² 6,2 km/h (2 Bft) S-SW 0,00 h 0 W/m² 4,8 °C 5,7 °C 8,7 km/h (2 Bft)
11.12.2023 07:00 21,5 °C 6,3 °C 49 % 89 % 999,8 hPa 0,0 l/m² 7,4 km/h (2 Bft) S-SW 0,00 h 0 W/m² 4,7 °C 4,9 °C 10,6 km/h (2 Bft)
11.12.2023 08:00 21,5 °C 6,6 °C 49 % 89 % 999,7 hPa 0,0 l/m² 2,6 km/h (1 Bft) O-SO 0,10 h 27 W/m² 5,0 °C 6,6 °C 4,7 km/h (1 Bft)
11.12.2023 09:00 21,8 °C 7,7 °C 48 % 88 % 999,2 hPa 0,0 l/m² 6,5 km/h (2 Bft) O-SO 0,25 h 40 W/m² 5,9 °C 7,0 °C 9,2 km/h (2 Bft)
11.12.2023 10:00 21,6 °C 9,0 °C 49 % 86 % 998,9 hPa 0,0 l/m² 10,5 km/h (2 Bft) S-SW 0,85 h 79 W/m² 6,9 °C 6,3 °C 14,6 km/h (3 Bft)
11.12.2023 11:00 21,9 °C 10,3 °C 48 % 83 % 998,8 hPa 0,0 l/m² 19,1 km/h (3 Bft) SW 0,95 h 193 W/m² 7,6 °C 4,1 °C 27,1 km/h (5 Bft)
11.12.2023 12:00 21,9 °C 10,6 °C 48 % 82 % 998,3 hPa 0,0 l/m² 17,2 km/h (3 Bft) SW 1,00 h 121 W/m² 7,7 °C 5,1 °C 24,7 km/h (4 Bft)
11.12.2023 13:00 21,8 °C 10,7 °C 48 % 82 % 997,8 hPa 0,0 l/m² 18,8 km/h (3 Bft) SW 0,97 h 99 W/m² 7,7 °C 4,6 °C 26,6 km/h (4 Bft)
11.12.2023 14:00 21,7 °C 10,3 °C 49 % 84 % 997,9 hPa 0,0 l/m² 19,5 km/h (3 Bft) SW 0,57 h 62 W/m² 7,7 °C 3,9 °C 27,2 km/h (5 Bft)
11.12.2023 15:00 21,6 °C 9,9 °C 49 % 84 % 998,3 hPa 0,0 l/m² 21,5 km/h (4 Bft) SW 0,00 h 14 W/m² 7,4 °C 2,8 °C 30,2 km/h (5 Bft)
11.12.2023 16:00 21,4 °C 10,0 °C 49 % 82 % 999,4 hPa 0,0 l/m² 27,2 km/h (5 Bft) W-SW 0,00 h 0 W/m² 7,1 °C 1,4 °C 35,6 km/h (5 Bft)
11.12.2023 17:00 21,5 °C 9,7 °C 49 % 80 % 1000,3 hPa 0,0 l/m² 27,1 km/h (5 Bft) W-SW 0,00 h 0 W/m² 6,5 °C 1,0 °C 36,5 km/h (5 Bft)
11.12.2023 18:00 21,5 °C 9,3 °C 49 % 75 % 1001,3 hPa 0,0 l/m² 25,3 km/h (4 Bft) W-SW 0,00 h 0 W/m² 5,1 °C 1,2 °C 34,3 km/h (5 Bft)
11.12.2023 19:00 21,5 °C 8,5 °C 49 % 81 % 1002,2 hPa 0,0 l/m² 18,1 km/h (3 Bft) W-SW 0,00 h 0 W/m² 5,3 °C 2,1 °C 23,8 km/h (4 Bft)
11.12.2023 20:00 21,9 °C 8,0 °C 51 % 79 % 1003,5 hPa 0,0 l/m² 17,6 km/h (3 Bft) W-SW 0,00 h 0 W/m² 4,7 °C 1,7 °C 23,7 km/h (4 Bft)
11.12.2023 21:00 22,3 °C 8,1 °C 50 % 78 % 1004,6 hPa 0,0 l/m² 19,1 km/h (3 Bft) W-SW 0,00 h 0 W/m² 4,4 °C 1,2 °C 25,3 km/h (4 Bft)
11.12.2023 22:00 22,0 °C 7,3 °C 50 % 81 % 1005,5 hPa 0,0 l/m² 7,5 km/h (2 Bft) SW 0,00 h 0 W/m² 4,3 °C 6,3 °C 10,1 km/h (2 Bft)
11.12.2023 23:00 21,7 °C 5,3 °C 51 % 85 % 1006,3 hPa 0,0 l/m² 8,2 km/h (2 Bft) SW 0,00 h 0 W/m² 3,0 °C 3,8 °C 10,6 km/h (2 Bft)
12.12.2023 00:00 21,4 °C 4,6 °C 51 % 87 % 1007,0 hPa 0,0 l/m² 4,0 km/h (1 Bft) S-SW 0,00 h 0 W/m² 2,6 °C 4,2 °C 5,5 km/h (2 Bft)
12.12.2023 01:00 21,3 °C 4,5 °C 51 % 89 % 1007,4 hPa 0,0 l/m² 6,3 km/h (2 Bft) SW 0,00 h 0 W/m² 2,9 °C 3,8 °C 8,7 km/h (2 Bft)
12.12.2023 02:00 21,3 °C 3,8 °C 51 % 89 % 1007,8 hPa 0,0 l/m² 1,0 km/h (0 Bft) N 0,00 h 0 W/m² 2,1 °C 3,8 °C 1,6 km/h (1 Bft)
12.12.2023 03:00 21,3 °C 2,6 °C 51 % 90 % 1008,1 hPa 0,0 l/m² 0,7 km/h (0 Bft) N 0,00 h 0 W/m² 1,1 °C 2,6 °C 1,2 km/h (1 Bft)
12.12.2023 04:00 21,2 °C 2,0 °C 51 % 91 % 1008,3 hPa 0,0 l/m² 1,3 km/h (1 Bft) W-SW 0,00 h 0 W/m² 0,7 °C 2,0 °C 2,2 km/h (1 Bft)
12.12.2023 05:00 21,2 °C 2,5 °C 50 % 93 % 1008,3 hPa 0,0 l/m² 0,0 km/h (0 Bft) N 0,00 h 0 W/m² 1,4 °C 2,5 °C 0,0 km/h (0 Bft)
12.12.2023 06:00 21,1 °C 2,5 °C 51 % 93 % 1008,4 hPa 0,0 l/m² 0,0 km/h (0 Bft) N 0,00 h 0 W/m² 1,5 °C 2,5 °C 0,0 km/h (0 Bft)
12.12.2023 07:00 21,1 °C 1,9 °C 49 % 93 % 1008,5 hPa 0,0 l/m² 0,0 km/h (0 Bft) O-NO 0,00 h 0 W/m² 0,9 °C 1,9 °C 0,0 km/h (0 Bft)
12.12.2023 08:00 21,2 °C 2,5 °C 49 % 94 % 1008,6 hPa 0,2 l/m² 0,2 km/h (0 Bft) O-NO 0,00 h 8 W/m² 1,6 °C 2,5 °C 0,4 km/h (0 Bft)
12.12.2023 09:00 21,3 °C 3,9 °C 49 % 95 % 1008,7 hPa 0,0 l/m² 0,0 km/h (0 Bft) O-NO 0,00 h 31 W/m² 3,1 °C 3,9 °C 0,0 km/h (0 Bft)
12.12.2023 10:00 21,3 °C 5,5 °C 49 % 95 % 1008,6 hPa 0,0 l/m² 0,0 km/h (0 Bft) O-NO 1,00 h 75 W/m² 4,8 °C 5,5 °C 0,1 km/h (0 Bft)
12.12.2023 11:00 21,8 °C 8,2 °C 48 % 91 % 1008,0 hPa 0,0 l/m² 2,2 km/h (1 Bft) O-NO 1,00 h 313 W/m² 6,8 °C 7,9 °C 3,0 km/h (1 Bft)
12.12.2023 12:00 22,5 °C 9,5 °C 47 % 84 % 1007,3 hPa 0,0 l/m² 7,9 km/h (2 Bft) S-SW 1,00 h 324 W/m² 6,9 °C 8,4 °C 10,0 km/h (2 Bft)
12.12.2023 13:00 22,4 °C 9,5 °C 48 % 82 % 1006,7 hPa 0,0 l/m² 6,1 km/h (2 Bft) S-SW 1,00 h 199 W/m² 6,6 °C 9,2 °C 7,9 km/h (2 Bft)
12.12.2023 14:00 22,2 °C 8,9 °C 48 % 84 % 1006,3 hPa 0,0 l/m² 3,3 km/h (1 Bft) S-SO 1,00 h 111 W/m² 6,3 °C 8,9 °C 4,7 km/h (1 Bft)
12.12.2023 15:00 22,0 °C 8,4 °C 48 % 82 % 1005,7 hPa 0,0 l/m² 1,8 km/h (1 Bft) SO 0,35 h 40 W/m² 5,5 °C 8,4 °C 2,8 km/h (1 Bft)
12.12.2023 16:00 21,7 °C 6,8 °C 47 % 87 % 1005,4 hPa 0,0 l/m² 0,7 km/h (0 Bft) SO 0,00 h 5 W/m² 4,7 °C 6,8 °C 1,2 km/h (1 Bft)
12.12.2023 17:00 21,7 °C 7,1 °C 46 % 86 % 1004,4 hPa 0,0 l/m² 3,0 km/h (1 Bft) O-NO 0,00 h 0 W/m² 4,9 °C 7,1 °C 4,8 km/h (1 Bft)
12.12.2023 18:00 21,6 °C 6,9 °C 46 % 87 % 1003,6 hPa 0,0 l/m² 4,0 km/h (1 Bft) O-NO 0,00 h 0 W/m² 4,9 °C 6,9 °C 5,4 km/h (1 Bft)
12.12.2023 19:00 21,6 °C 6,6 °C 48 % 89 % 1003,0 hPa 0,0 l/m² 1,5 km/h (1 Bft) O-NO 0,00 h 0 W/m² 4,8 °C 6,6 °C 2,5 km/h (1 Bft)
12.12.2023 20:00 21,8 °C 6,7 °C 49 % 90 % 1002,5 hPa 0,0 l/m² 4,9 km/h (1 Bft) O-NO 0,00 h 0 W/m² 5,1 °C 5,9 °C 6,6 km/h (2 Bft)
12.12.2023 21:00 21,9 °C 7,6 °C 49 % 88 % 1001,9 hPa 0,0 l/m² 7,9 km/h (2 Bft) O 0,00 h 0 W/m² 5,7 °C 6,4 °C 10,8 km/h (2 Bft)
12.12.2023 22:00 21,8 °C 7,2 °C 49 % 90 % 1001,3 hPa 1,8 l/m² 7,5 km/h (2 Bft) O 0,00 h 0 W/m² 5,7 °C 5,9 °C 10,0 km/h (2 Bft)
12.12.2023 23:00 21,7 °C 6,9 °C 49 % 92 % 1000,6 hPa 0,4 l/m² 7,0 km/h (2 Bft) O 0,00 h 0 W/m² 5,7 °C 5,4 °C 10,5 km/h (2 Bft)
13.12.2023 00:00 21,7 °C 6,7 °C 49 % 93 % 1000,1 hPa 0,0 l/m² 2,0 km/h (1 Bft) O 0,00 h 0 W/m² 5,7 °C 6,6 °C 4,3 km/h (1 Bft)
13.12.2023 01:00 21,7 °C 6,8 °C 49 % 93 % 999,2 hPa 0,0 l/m² 0,6 km/h (0 Bft) O 0,00 h 0 W/m² 5,8 °C 6,8 °C 1,4 km/h (1 Bft)
13.12.2023 02:00 21,7 °C 6,8 °C 50 % 94 % 999,0 hPa 0,8 l/m² 0,5 km/h (0 Bft) O 0,00 h 0 W/m² 5,9 °C 6,8 °C 1,5 km/h (1 Bft)
13.12.2023 03:00 21,7 °C 6,9 °C 50 % 94 % 998,5 hPa 0,8 l/m² 1,0 km/h (0 Bft) O 0,00 h 0 W/m² 6,0 °C 6,9 °C 1,6 km/h (1 Bft)
13.12.2023 04:00 21,6 °C 6,8 °C 50 % 95 % 998,3 hPa 0,0 l/m² 0,2 km/h (0 Bft) O 0,00 h 0 W/m² 6,0 °C 6,8 °C 0,8 km/h (0 Bft)
13.12.2023 05:00 21,6 °C 6,4 °C 50 % 95 % 998,2 hPa 0,0 l/m² 0,0 km/h (0 Bft) O 0,00 h 0 W/m² 5,6 °C 6,4 °C 0,4 km/h (0 Bft)
13.12.2023 06:00 21,6 °C 5,5 °C 50 % 94 % 998,1 hPa 0,0 l/m² 0,1 km/h (0 Bft) O 0,00 h 0 W/m² 4,6 °C 5,5 °C 0,3 km/h (0 Bft)
13.12.2023 07:00 21,7 °C 5,3 °C 50 % 95 % 998,2 hPa 0,0 l/m² 1,1 km/h (1 Bft) O 0,00 h 0 W/m² 4,6 °C 5,3 °C 2,0 km/h (1 Bft)
13.12.2023 08:00 21,6 °C 5,7 °C 50 % 95 % 998,5 hPa 0,0 l/m² 0,2 km/h (0 Bft) O 0,00 h 16 W/m² 5,0 °C 5,7 °C 0,5 km/h (0 Bft)
13.12.2023 09:00 21,6 °C 6,4 °C 51 % 95 % 998,9 hPa 0,0 l/m² 1,5 km/h (1 Bft) S 0,53 h 51 W/m² 5,6 °C 6,4 °C 2,7 km/h (1 Bft)
13.12.2023 10:00 21,7 °C 7,4 °C 52 % 95 % 999,0 hPa 0,0 l/m² 0,0 km/h (0 Bft) S 1,00 h 90 W/m² 6,7 °C 7,4 °C 0,1 km/h (0 Bft)
13.12.2023 11:00 22,0 °C 9,1 °C 52 % 92 % 998,8 hPa 0,0 l/m² 4,3 km/h (1 Bft) S 1,00 h 166 W/m² 7,8 °C 8,3 °C 6,3 km/h (2 Bft)
13.12.2023 12:00 21,9 °C 9,5 °C 53 % 89 % 998,7 hPa 0,0 l/m² 7,4 km/h (2 Bft) SW 1,00 h 108 W/m² 7,9 °C 8,5 °C 10,0 km/h (2 Bft)
13.12.2023 13:00 21,8 °C 9,8 °C 51 % 88 % 998,7 hPa 0,0 l/m² 8,1 km/h (2 Bft) W-SW 1,00 h 100 W/m² 8,0 °C 8,4 °C 11,1 km/h (2 Bft)
13.12.2023 14:00 21,3 °C 9,9 °C 47 % 87 % 999,1 hPa 0,0 l/m² 4,4 km/h (1 Bft) W-SW 0,40 h 50 W/m² 7,8 °C 9,9 °C 6,4 km/h (2 Bft)
13.12.2023 15:00 21,4 °C 9,4 °C 51 % 88 % 999,4 hPa 0,0 l/m² 2,6 km/h (1 Bft) W-SW 0,00 h 17 W/m² 7,5 °C 9,4 °C 3,9 km/h (1 Bft)
13.12.2023 16:00 21,3 °C 8,7 °C 52 % 89 % 999,7 hPa 0,0 l/m² 0,1 km/h (0 Bft) W-SW 0,00 h 0 W/m² 6,9 °C 8,7 °C 0,3 km/h (0 Bft)
13.12.2023 17:00 21,4 °C 7,8 °C 52 % 91 % 1000,0 hPa 0,0 l/m² 0,2 km/h (0 Bft) W-SW 0,00 h 0 W/m² 6,4 °C 7,8 °C 0,4 km/h (0 Bft)
13.12.2023 18:00 21,5 °C 7,1 °C 53 % 92 % 1000,3 hPa 0,0 l/m² 0,5 km/h (0 Bft) W-SW 0,00 h 0 W/m² 5,8 °C 7,1 °C 0,8 km/h (0 Bft)
13.12.2023 19:00 21,7 °C 6,1 °C 53 % 92 % 1001,1 hPa 0,0 l/m² 0,3 km/h (0 Bft) W-SW 0,00 h 0 W/m² 5,0 °C 6,1 °C 0,6 km/h (0 Bft)
13.12.2023 20:00 22,0 °C 5,8 °C 53 % 93 % 1001,8 hPa 0,0 l/m² 0,5 km/h (0 Bft) W-SW 0,00 h 0 W/m² 4,8 °C 5,8 °C 0,9 km/h (0 Bft)
13.12.2023 21:00 22,4 °C 5,7 °C 52 % 94 % 1002,5 hPa 0,0 l/m² 0,3 km/h (0 Bft) W-SW 0,00 h 0 W/m² 4,8 °C 5,7 °C 0,6 km/h (0 Bft)
13.12.2023 22:00 22,0 °C 6,0 °C 52 % 94 % 1003,2 hPa 0,0 l/m² 2,0 km/h (1 Bft) W-SW 0,00 h 0 W/m² 5,1 °C 6,0 °C 3,5 km/h (1 Bft)
13.12.2023 23:00 21,8 °C 6,5 °C 52 % 95 % 1003,8 hPa 0,0 l/m² 3,3 km/h (1 Bft) W-SW 0,00 h 0 W/m² 5,8 °C 6,5 °C 6,9 km/h (2 Bft)
14.12.2023 00:00 21,8 °C 6,3 °C 53 % 95 % 1004,6 hPa 0,0 l/m² 4,7 km/h (1 Bft) NW 0,00 h 0 W/m² 5,6 °C 6,1 °C 9,4 km/h (2 Bft)
14.12.2023 01:00 21,8 °C 5,9 °C 53 % 95 % 1005,4 hPa 0,0 l/m² 5,0 km/h (1 Bft) N-NW 0,00 h 0 W/m² 5,2 °C 5,8 °C 8,8 km/h (2 Bft)
14.12.2023 02:00 21,7 °C 5,6 °C 53 % 95 % 1006,3 hPa 0,0 l/m² 6,2 km/h (2 Bft) NW 0,00 h 0 W/m² 4,8 °C 4,9 °C 10,4 km/h (2 Bft)
14.12.2023 03:00 21,7 °C 5,2 °C 52 % 95 % 1007,3 hPa 0,0 l/m² 9,0 km/h (2 Bft) NW 0,00 h 0 W/m² 4,4 °C 3,0 °C 15,1 km/h (3 Bft)
14.12.2023 04:00 21,7 °C 4,8 °C 52 % 95 % 1008,0 hPa 0,0 l/m² 6,9 km/h (2 Bft) NW 0,00 h 0 W/m² 4,0 °C 3,9 °C 11,9 km/h (2 Bft)
14.12.2023 05:00 21,7 °C 4,5 °C 52 % 95 % 1009,0 hPa 0,0 l/m² 6,1 km/h (2 Bft) NW 0,00 h 0 W/m² 3,8 °C 3,9 °C 11,1 km/h (2 Bft)
14.12.2023 06:00 21,6 °C 4,3 °C 51 % 95 % 1010,0 hPa 0,4 l/m² 7,0 km/h (2 Bft) NW 0,00 h 0 W/m² 3,5 °C 3,2 °C 12,3 km/h (2 Bft)
14.12.2023 07:00 21,6 °C 3,9 °C 50 % 95 % 1010,9 hPa 0,0 l/m² 8,8 km/h (2 Bft) N-NW 0,00 h 0 W/m² 3,2 °C 1,9 °C 14,7 km/h (3 Bft)
14.12.2023 08:00 21,6 °C 3,7 °C 50 % 95 % 1012,0 hPa 0,2 l/m² 4,4 km/h (1 Bft) NW 0,00 h 6 W/m² 2,9 °C 3,5 °C 8,6 km/h (2 Bft)
14.12.2023 09:00 21,5 °C 3,6 °C 50 % 94 % 1012,9 hPa 0,0 l/m² 6,0 km/h (2 Bft) N-NW 0,00 h 14 W/m² 2,7 °C 3,1 °C 10,8 km/h (2 Bft)
14.12.2023 10:00 21,5 °C 3,6 °C 50 % 94 % 1014,2 hPa 0,0 l/m² 3,7 km/h (1 Bft) NW 0,00 h 17 W/m² 2,7 °C 3,5 °C 8,0 km/h (2 Bft)
14.12.2023 11:00 21,6 °C 3,7 °C 50 % 94 % 1014,9 hPa 0,0 l/m² 4,5 km/h (1 Bft) W-NW 0,00 h 25 W/m² 2,8 °C 3,4 °C 10,1 km/h (2 Bft)
14.12.2023 12:00 21,5 °C 3,7 °C 50 % 93 % 1015,7 hPa 0,0 l/m² 4,4 km/h (1 Bft) W-NW 0,00 h 24 W/m² 2,7 °C 3,4 °C 9,0 km/h (2 Bft)
14.12.2023 13:00 21,4 °C 3,7 °C 50 % 93 % 1016,0 hPa 0,0 l/m² 6,6 km/h (2 Bft) W-NW 0,00 h 30 W/m² 2,7 °C 2,4 °C 11,8 km/h (2 Bft)
14.12.2023 14:00 21,4 °C 3,6 °C 49 % 93 % 1016,7 hPa 0,0 l/m² 5,2 km/h (1 Bft) W-NW 0,07 h 29 W/m² 2,6 °C 3,1 °C 10,6 km/h (2 Bft)
14.12.2023 15:00 21,4 °C 3,7 °C 49 % 93 % 1018,0 hPa 0,2 l/m² 3,0 km/h (1 Bft) W-NW 0,00 h 9 W/m² 2,7 °C 3,6 °C 7,0 km/h (2 Bft)
14.12.2023 16:00 21,4 °C 3,7 °C 50 % 93 % 1019,1 hPa 0,0 l/m² 2,3 km/h (1 Bft) W 0,00 h 0 W/m² 2,7 °C 3,6 °C 5,2 km/h (1 Bft)
14.12.2023 17:00 21,4 °C 3,7 °C 49 % 93 % 1020,0 hPa 0,0 l/m² 5,0 km/h (1 Bft) W-NW 0,00 h 0 W/m² 2,6 °C 3,2 °C 9,9 km/h (2 Bft)
14.12.2023 18:00 21,4 °C 3,8 °C 49 % 93 % 1021,0 hPa 0,0 l/m² 4,5 km/h (1 Bft) W 0,00 h 0 W/m² 2,7 °C 3,7 °C 9,3 km/h (2 Bft)
14.12.2023 19:00 21,5 °C 3,7 °C 50 % 93 % 1021,7 hPa 0,0 l/m² 5,7 km/h (2 Bft) W 0,00 h 0 W/m² 2,7 °C 2,9 °C 9,4 km/h (2 Bft)
14.12.2023 20:00 21,4 °C 3,6 °C 50 % 94 % 1022,7 hPa 0,0 l/m² 4,6 km/h (1 Bft) W-NW 0,00 h 0 W/m² 2,7 °C 3,2 °C 9,4 km/h (2 Bft)
14.12.2023 21:00 21,7 °C 3,6 °C 50 % 94 % 1023,5 hPa 0,0 l/m² 5,3 km/h (1 Bft) W-NW 0,00 h 0 W/m² 2,7 °C 3,2 °C 10,1 km/h (2 Bft)
14.12.2023 22:00 21,8 °C 3,6 °C 50 % 94 % 1024,2 hPa 0,0 l/m² 3,6 km/h (1 Bft) W-NW 0,00 h 0 W/m² 2,7 °C 3,4 °C 7,7 km/h (2 Bft)
14.12.2023 23:00 21,6 °C 3,4 °C 50 % 93 % 1024,8 hPa 0,0 l/m² 1,9 km/h (1 Bft) W 0,00 h 0 W/m² 2,4 °C 3,4 °C 5,2 km/h (1 Bft)
15.12.2023 00:00 21,4 °C 3,0 °C 50 % 93 % 1025,8 hPa 0,0 l/m² 3,7 km/h (1 Bft) W 0,00 h 0 W/m² 1,9 °C 2,6 °C 7,0 km/h (2 Bft)
15.12.2023 01:00 21,4 °C 2,7 °C 50 % 93 % 1026,7 hPa 0,0 l/m² 3,6 km/h (1 Bft) W 0,00 h 0 W/m² 1,6 °C 2,5 °C 6,4 km/h (2 Bft)
15.12.2023 02:00 21,4 °C 1,5 °C 50 % 92 % 1027,7 hPa 0,0 l/m² 0,6 km/h (0 Bft) W 0,00 h 0 W/m² 0,3 °C 1,5 °C 1,3 km/h (1 Bft)
15.12.2023 03:00 21,3 °C 1,2 °C 49 % 92 % 1028,3 hPa 0,0 l/m² 0,3 km/h (0 Bft) SW 0,00 h 0 W/m² 0,1 °C 1,2 °C 1,0 km/h (0 Bft)
15.12.2023 04:00 21,3 °C 1,1 °C 49 % 93 % 1028,7 hPa 0,0 l/m² 0,3 km/h (0 Bft) W-SW 0,00 h 0 W/m² 0,1 °C 1,1 °C 0,8 km/h (0 Bft)
15.12.2023 05:00 21,4 °C 0,6 °C 49 % 93 % 1029,1 hPa 0,0 l/m² 0,3 km/h (0 Bft) SW 0,00 h 0 W/m² -0,4 °C 0,6 °C 1,1 km/h (1 Bft)
15.12.2023 06:00 21,4 °C 0,3 °C 49 % 93 % 1029,5 hPa 0,0 l/m² 0,1 km/h (0 Bft) SW 0,00 h 0 W/m² -0,7 °C 0,3 °C 0,2 km/h (0 Bft)
15.12.2023 07:00 21,4 °C -0,1 °C 47 % 93 % 1030,1 hPa 0,0 l/m² 0,0 km/h (0 Bft) SW 0,00 h 0 W/m² -1,1 °C -0,1 °C 0,0 km/h (0 Bft)
15.12.2023 08:00 21,4 °C 0,3 °C 49 % 94 % 1030,7 hPa 0,0 l/m² 0,1 km/h (0 Bft) SO 0,00 h 10 W/m² -0,6 °C 0,3 °C 0,2 km/h (0 Bft)
15.12.2023 09:00 21,5 °C 0,9 °C 50 % 94 % 1031,3 hPa 0,6 l/m² 0,0 km/h (0 Bft) SO 0,00 h 28 W/m² 0,1 °C 0,9 °C 0,1 km/h (0 Bft)
15.12.2023 10:00 21,6 °C 2,2 °C 51 % 95 % 1031,9 hPa 0,0 l/m² 2,0 km/h (1 Bft) S-SW 0,00 h 34 W/m² 1,5 °C 2,2 °C 3,8 km/h (1 Bft)
15.12.2023 11:00 21,6 °C 3,2 °C 51 % 95 % 1032,4 hPa 0,0 l/m² 2,4 km/h (1 Bft) S-SW 0,00 h 35 W/m² 2,5 °C 3,2 °C 4,2 km/h (1 Bft)
15.12.2023 12:00 21,4 °C 4,1 °C 52 % 95 % 1032,6 hPa 0,0 l/m² 5,7 km/h (2 Bft) S-SW 0,60 h 62 W/m² 3,3 °C 3,2 °C 8,3 km/h (2 Bft)
15.12.2023 13:00 21,7 °C 5,7 °C 52 % 91 % 1032,5 hPa 0,0 l/m² 8,2 km/h (2 Bft) SW 1,00 h 184 W/m² 4,4 °C 4,1 °C 11,3 km/h (2 Bft)
15.12.2023 14:00 21,7 °C 6,2 °C 52 % 89 % 1033,0 hPa 0,0 l/m² 12,0 km/h (2 Bft) SW 0,45 h 57 W/m² 4,5 °C 2,2 °C 16,3 km/h (3 Bft)
15.12.2023 15:00 21,6 °C 5,7 °C 51 % 90 % 1033,5 hPa 0,0 l/m² 8,7 km/h (2 Bft) SW 0,00 h 18 W/m² 4,2 °C 3,8 °C 12,5 km/h (2 Bft)
15.12.2023 16:00 21,4 °C 5,6 °C 50 % 90 % 1033,7 hPa 0,0 l/m² 8,6 km/h (2 Bft) W-SW 0,00 h 5 W/m² 4,2 °C 3,7 °C 12,4 km/h (2 Bft)
15.12.2023 17:00 21,4 °C 5,8 °C 53 % 90 % 1034,3 hPa 0,0 l/m² 10,3 km/h (2 Bft) SW 0,00 h 0 W/m² 4,3 °C 2,8 °C 14,6 km/h (3 Bft)
15.12.2023 18:00 21,6 °C 5,9 °C 55 % 91 % 1034,8 hPa 0,0 l/m² 9,7 km/h (2 Bft) SW 0,00 h 0 W/m² 4,5 °C 3,3 °C 13,5 km/h (3 Bft)
15.12.2023 19:00 21,9 °C 5,5 °C 57 % 91 % 1035,2 hPa 0,2 l/m² 4,0 km/h (1 Bft) SW 0,00 h 0 W/m² 4,2 °C 5,2 °C 6,7 km/h (2 Bft)
15.12.2023 20:00 22,5 °C 5,7 °C 57 % 92 % 1035,9 hPa 0,0 l/m² 3,9 km/h (1 Bft) W-SW 0,00 h 0 W/m² 4,5 °C 5,5 °C 6,6 km/h (2 Bft)
15.12.2023 21:00 22,7 °C 5,8 °C 56 % 92 % 1036,4 hPa 0,0 l/m² 9,2 km/h (2 Bft) W-SW 0,00 h 0 W/m² 4,7 °C 3,6 °C 13,2 km/h (3 Bft)
15.12.2023 22:00 22,2 °C 5,8 °C 55 % 92 % 1036,7 hPa 0,4 l/m² 7,3 km/h (2 Bft) SW 0,00 h 0 W/m² 4,6 °C 4,6 °C 10,1 km/h (2 Bft)
15.12.2023 23:00 21,9 °C 5,7 °C 56 % 93 % 1037,0 hPa 0,0 l/m² 1,8 km/h (1 Bft) SW 0,00 h 0 W/m² 4,7 °C 5,7 °C 3,1 km/h (1 Bft)
16.12.2023 00:00 21,7 °C 5,4 °C 56 % 93 % 1037,1 hPa 0,0 l/m² 0,9 km/h (0 Bft) SO 0,00 h 0 W/m² 4,3 °C 5,4 °C 1,9 km/h (1 Bft)
16.12.2023 01:00 21,7 °C 5,6 °C 56 % 93 % 1037,5 hPa 0,0 l/m² 9,9 km/h (2 Bft) W-SW 0,00 h 0 W/m² 4,5 °C 2,4 °C 15,0 km/h (3 Bft)
16.12.2023 02:00 21,7 °C 6,0 °C 56 % 90 % 1037,3 hPa 0,0 l/m² 10,6 km/h (2 Bft) SW 0,00 h 0 W/m² 4,5 °C 2,9 °C 15,3 km/h (3 Bft)
16.12.2023 03:00 21,7 °C 5,9 °C 56 % 89 % 1037,4 hPa 0,0 l/m² 11,9 km/h (2 Bft) SW 0,00 h 0 W/m² 4,2 °C 1,9 °C 16,6 km/h (3 Bft)
16.12.2023 04:00 21,6 °C 6,0 °C 56 % 88 % 1037,9 hPa 0,0 l/m² 11,6 km/h (2 Bft) SW 0,00 h 0 W/m² 4,2 °C 2,3 °C 16,6 km/h (3 Bft)
16.12.2023 05:00 21,6 °C 6,1 °C 55 % 88 % 1038,1 hPa 0,0 l/m² 11,6 km/h (2 Bft) SW 0,00 h 0 W/m² 4,2 °C 2,3 °C 16,7 km/h (3 Bft)
16.12.2023 06:00 21,6 °C 6,2 °C 55 % 87 % 1038,3 hPa 0,0 l/m² 13,5 km/h (3 Bft) SW 0,00 h 0 W/m² 4,2 °C 1,4 °C 18,5 km/h (3 Bft)
16.12.2023 07:00 21,6 °C 6,1 °C 55 % 87 % 1038,7 hPa 0,0 l/m² 10,9 km/h (2 Bft) SW 0,00 h 0 W/m² 4,1 °C 2,7 °C 14,4 km/h (3 Bft)
16.12.2023 08:00 21,5 °C 5,8 °C 56 % 88 % 1039,2 hPa 0,0 l/m² 8,1 km/h (2 Bft) SW 0,00 h 12 W/m² 4,0 °C 4,3 °C 10,9 km/h (2 Bft)
16.12.2023 09:00 21,7 °C 6,0 °C 56 % 88 % 1039,2 hPa 0,0 l/m² 12,5 km/h (2 Bft) SW 0,22 h 37 W/m² 4,2 °C 1,7 °C 16,2 km/h (3 Bft)
16.12.2023 10:00 21,8 °C 6,8 °C 55 % 85 % 1039,2 hPa 0,0 l/m² 13,2 km/h (3 Bft) SW 0,70 h 115 W/m² 4,5 °C 2,3 °C 17,7 km/h (3 Bft)
16.12.2023 11:00 21,7 °C 7,5 °C 51 % 82 % 1038,7 hPa 0,0 l/m² 18,1 km/h (3 Bft) SW 1,00 h 183 W/m² 4,6 °C 0,9 °C 23,3 km/h (4 Bft)
16.12.2023 12:00 21,8 °C 8,1 °C 49 % 80 % 1037,9 hPa 0,0 l/m² 18,1 km/h (3 Bft) SW 1,00 h 205 W/m² 4,8 °C 1,7 °C 23,4 km/h (4 Bft)
16.12.2023 13:00 21,8 °C 8,2 °C 50 % 79 % 1036,9 hPa 0,0 l/m² 19,8 km/h (3 Bft) SW 1,00 h 167 W/m² 4,8 °C 1,1 °C 25,6 km/h (4 Bft)
16.12.2023 14:00 21,7 °C 7,7 °C 52 % 81 % 1036,3 hPa 0,0 l/m² 18,7 km/h (3 Bft) SW 0,82 h 69 W/m² 4,7 °C 0,9 °C 24,5 km/h (4 Bft)
16.12.2023 15:00 21,7 °C 7,3 °C 52 % 82 % 1036,0 hPa 0,0 l/m² 16,0 km/h (3 Bft) SW 0,00 h 20 W/m² 4,5 °C 1,6 °C 22,1 km/h (4 Bft)
16.12.2023 16:00 21,7 °C 6,8 °C 52 % 83 % 1036,0 hPa 0,0 l/m² 11,9 km/h (2 Bft) SW 0,00 h 5 W/m² 4,2 °C 3,0 °C 16,3 km/h (3 Bft)
16.12.2023 17:00 21,6 °C 7,0 °C 52 % 83 % 1035,8 hPa 0,0 l/m² 14,2 km/h (3 Bft) SW 0,00 h 0 W/m² 4,4 °C 2,0 °C 19,5 km/h (3 Bft)
16.12.2023 18:00 21,6 °C 6,5 °C 52 % 83 % 1036,2 hPa 0,0 l/m² 8,1 km/h (2 Bft) SW 0,00 h 0 W/m² 3,9 °C 5,0 °C 10,7 km/h (2 Bft)
16.12.2023 19:00 21,6 °C 5,5 °C 52 % 86 % 1036,2 hPa 0,0 l/m² 7,8 km/h (2 Bft) SW 0,00 h 0 W/m² 3,4 °C 3,9 °C 10,5 km/h (2 Bft)
16.12.2023 20:00 21,6 °C 5,7 °C 52 % 88 % 1036,4 hPa 0,0 l/m² 9,2 km/h (2 Bft) SW 0,00 h 0 W/m² 3,8 °C 3,2 °C 12,3 km/h (2 Bft)
16.12.2023 21:00 21,8 °C 6,0 °C 53 % 89 % 1036,1 hPa 0,0 l/m² 10,0 km/h (2 Bft) SW 0,00 h 0 W/m² 4,4 °C 3,2 °C 13,1 km/h (3 Bft)
16.12.2023 22:00 21,9 °C 6,0 °C 53 % 90 % 1036,1 hPa 0,0 l/m² 7,6 km/h (2 Bft) SW 0,00 h 0 W/m² 4,5 °C 4,5 °C 10,5 km/h (2 Bft)
16.12.2023 23:00 21,7 °C 6,0 °C 53 % 91 % 1036,1 hPa 0,0 l/m² 6,8 km/h (2 Bft) SW 0,00 h 0 W/m² 4,6 °C 4,3 °C 11,0 km/h (2 Bft)
17.12.2023 00:00 21,6 °C 6,5 °C 53 % 90 % 1036,1 hPa 0,0 l/m² 13,7 km/h (3 Bft) SW 0,00 h 0 W/m² 5,0 °C 1,6 °C 19,3 km/h (3 Bft)
17.12.2023 01:00 21,6 °C 6,6 °C 53 % 90 % 1036,0 hPa 0,0 l/m² 15,3 km/h (3 Bft) SW 0,00 h 0 W/m² 5,0 °C 0,9 °C 21,1 km/h (4 Bft)
17.12.2023 02:00 21,6 °C 6,7 °C 53 % 89 % 1035,8 hPa 0,0 l/m² 16,1 km/h (3 Bft) SW 0,00 h 0 W/m² 5,0 °C 0,8 °C 22,5 km/h (4 Bft)
17.12.2023 03:00 21,5 °C 6,8 °C 53 % 88 % 1036,0 hPa 0,0 l/m² 16,2 km/h (3 Bft) SW 0,00 h 0 W/m² 5,0 °C 0,8 °C 22,3 km/h (4 Bft)
17.12.2023 04:00 21,4 °C 6,2 °C 53 % 90 % 1035,8 hPa 0,0 l/m² 12,0 km/h (2 Bft) S-SW 0,00 h 0 W/m² 4,7 °C 2,2 °C 15,7 km/h (3 Bft)
17.12.2023 05:00 21,5 °C 6,6 °C 53 % 91 % 1035,6 hPa 0,0 l/m² 14,4 km/h (3 Bft) SW 0,00 h 0 W/m² 5,2 °C 1,4 °C 19,7 km/h (3 Bft)
17.12.2023 06:00 21,4 °C 7,0 °C 53 % 90 % 1035,8 hPa 0,0 l/m² 14,1 km/h (3 Bft) SW 0,00 h 0 W/m² 5,5 °C 2,0 °C 19,2 km/h (3 Bft)
17.12.2023 07:00 21,4 °C 7,1 °C 54 % 89 % 1035,9 hPa 0,0 l/m² 12,3 km/h (2 Bft) SW 0,00 h 0 W/m² 5,4 °C 3,0 °C 17,7 km/h (3 Bft)
17.12.2023 08:00 21,5 °C 6,3 °C 54 % 89 % 1036,1 hPa 0,0 l/m² 10,1 km/h (2 Bft) SW 0,00 h 22 W/m² 4,7 °C 3,5 °C 14,0 km/h (3 Bft)
17.12.2023 09:00 21,8 °C 6,7 °C 54 % 89 % 1036,0 hPa 0,0 l/m² 11,0 km/h (2 Bft) SW 0,92 h 83 W/m² 5,1 °C 3,5 °C 15,0 km/h (3 Bft)
17.12.2023 10:00 22,6 °C 7,6 °C 51 % 87 % 1035,7 hPa 0,0 l/m² 19,0 km/h (3 Bft) SW 1,00 h 168 W/m² 5,6 °C 0,6 °C 25,0 km/h (4 Bft)
17.12.2023 11:00 22,6 °C 7,8 °C 49 % 86 % 1035,4 hPa 0,0 l/m² 18,6 km/h (3 Bft) SW 1,00 h 226 W/m² 5,6 °C 1,1 °C 24,3 km/h (4 Bft)
17.12.2023 12:00 22,5 °C 8,1 °C 52 % 85 % 1034,9 hPa 0,0 l/m² 15,7 km/h (3 Bft) S-SW 1,00 h 237 W/m² 5,8 °C 2,6 °C 20,6 km/h (4 Bft)
17.12.2023 13:00 22,5 °C 7,9 °C 53 % 85 % 1034,1 hPa 0,0 l/m² 17,4 km/h (3 Bft) S-SW 1,00 h 184 W/m² 5,5 °C 1,6 °C 22,2 km/h (4 Bft)
17.12.2023 14:00 22,3 °C 7,5 °C 52 % 84 % 1033,5 hPa 0,0 l/m² 15,2 km/h (3 Bft) SW 1,00 h 112 W/m² 5,1 °C 2,1 °C 19,9 km/h (4 Bft)
17.12.2023 15:00 22,3 °C 6,7 °C 52 % 85 % 1033,3 hPa 0,0 l/m² 12,8 km/h (3 Bft) SW 0,10 h 26 W/m² 4,3 °C 2,5 °C 17,5 km/h (3 Bft)
17.12.2023 16:00 22,8 °C 5,8 °C 52 % 87 % 1033,4 hPa 0,0 l/m² 13,0 km/h (3 Bft) SW 0,00 h 5 W/m² 3,8 °C 1,3 °C 17,6 km/h (3 Bft)
17.12.2023 17:00 22,5 °C 5,4 °C 51 % 88 % 1033,1 hPa 0,0 l/m² 11,2 km/h (2 Bft) SW 0,00 h 0 W/m² 3,6 °C 1,8 °C 15,3 km/h (3 Bft)
17.12.2023 18:00 22,3 °C 5,4 °C 51 % 89 % 1033,1 hPa 0,0 l/m² 13,6 km/h (3 Bft) S-SW 0,00 h 0 W/m² 3,7 °C 0,4 °C 17,7 km/h (3 Bft)
17.12.2023 19:00 22,3 °C 5,0 °C 55 % 89 % 1033,3 hPa 0,0 l/m² 9,5 km/h (2 Bft) SW 0,00 h 0 W/m² 3,4 °C 2,4 °C 12,7 km/h (3 Bft)
17.12.2023 20:00 22,3 °C 4,5 °C 56 % 90 % 1033,2 hPa 0,0 l/m² 8,4 km/h (2 Bft) S-SW 0,00 h 0 W/m² 3,1 °C 2,6 °C 11,7 km/h (2 Bft)
17.12.2023 21:00 22,6 °C 4,8 °C 57 % 90 % 1033,0 hPa 0,0 l/m² 8,2 km/h (2 Bft) SW 0,00 h 0 W/m² 3,4 °C 2,9 °C 12,1 km/h (2 Bft)
17.12.2023 22:00 22,4 °C 5,0 °C 55 % 90 % 1032,9 hPa 0,0 l/m² 9,7 km/h (2 Bft) W-SW 0,00 h 0 W/m² 3,5 °C 2,3 °C 14,3 km/h (3 Bft)
17.12.2023 23:00 22,2 °C 5,2 °C 55 % 91 % 1032,8 hPa 0,0 l/m² 14,4 km/h (3 Bft) SW 0,00 h 0 W/m² 3,8 °C -0,0 °C 20,0 km/h (4 Bft)
Min-Datum _ 12.12.23 15.12.23 16.12.23 11.12.23 11.12.23 - 16.12.23 - - - 15.12.23 17.12.23 16.12.23
_ Min-Zeit 06:19 07:12 11:37 18:21 13:33 - 23:09 - - - 07:12 23:09 23:09
Minimum _ 21,0 °C -0,2 °C 45 % 71 % 997,6 hPa - 0,0 km/h (0 Bft) - - - -1,2 °C -4,3 °C 0,0 km/h (0 Bft)
Max-Datum _ 17.12.23 11.12.23 17.12.23 13.12.23 16.12.23 12.12.23 11.12.23 - 13.12.23 12.12.23 13.12.23 13.12.23 11.12.23
_ Max-Zeit 16:36 13:06 21:01 10:03 10:00 22:13 18:15 - 13:59 11:39 11:31 13:51 18:21
Maximum _ 22,9 °C 10,8 °C 57 % 96 % 1039,5 hPa 1,8 l/m² 38,8 km/h
W-SW (6 Bft)
- 0,10 h 378 W/m² 8,8 °C 10,1 °C 56,3 km/h
W-SW (7 Bft)
Durchschnitt _ 21,7 °C 6,0 °C 51 % 90 % 1017,9 hPa #6,0 l/m² 7,8 km/h (2 Bft) SW #27:50 h 29 W/m² 4,4 °C 3,8 °C 11,2 km/h (2 Bft)
© 2009 Mathias Hoßbach